createdAt,value
2022-08-23T00:02:55.868Z,4.00
2022-08-23T00:07:52.239Z,3.85
2022-08-23T00:12:48.509Z,4.00
2022-08-23T00:17:44.776Z,4.03
2022-08-23T00:22:41.307Z,3.30
2022-08-23T00:27:37.564Z,3.45
2022-08-23T00:32:36.336Z,4.15
2022-08-23T00:37:33.786Z,3.30
2022-08-23T00:42:51.693Z,3.20
2022-08-23T00:47:48.280Z,3.50
2022-08-23T00:52:50.907Z,3.13
2022-08-23T00:57:47.560Z,3.95
2022-08-23T01:02:44.927Z,3.60
2022-08-23T01:07:41.347Z,3.75
2022-08-23T01:12:41.536Z,3.30
2022-08-23T01:17:40.875Z,4.00
2022-08-23T01:22:42.207Z,3.78
2022-08-23T01:27:39.296Z,3.97
2022-08-23T01:32:37.465Z,2.83
2022-08-23T01:37:34.035Z,3.67
2022-08-23T01:42:31.009Z,3.40
2022-08-23T01:47:27.526Z,3.22
2022-08-23T01:52:23.816Z,3.42
2022-08-23T01:57:20.065Z,4.13
2022-08-23T02:02:16.906Z,3.22
2022-08-23T02:07:13.184Z,4.00
2022-08-23T02:12:09.498Z,3.13
2022-08-23T02:17:05.782Z,3.30
2022-08-23T02:22:03.222Z,3.70
2022-08-23T02:27:01.901Z,3.28
2022-08-23T02:31:58.780Z,3.40
2022-08-23T02:36:56.872Z,2.95
2022-08-23T02:41:53.486Z,3.60
2022-08-23T02:46:49.937Z,3.50
2022-08-23T02:51:46.195Z,3.30
2022-08-23T02:56:42.448Z,3.33
2022-08-23T03:01:39.386Z,3.70
2022-08-23T03:06:36.639Z,3.33
2022-08-23T03:11:32.950Z,3.35
2022-08-23T03:16:29.563Z,3.63
2022-08-23T03:21:25.836Z,3.60
2022-08-23T03:26:22.218Z,3.80
2022-08-23T03:31:18.984Z,3.60
2022-08-23T03:36:15.792Z,3.80
2022-08-23T03:41:12.625Z,3.60
2022-08-23T03:46:09.077Z,3.72
2022-08-23T03:51:05.525Z,3.92
2022-08-23T03:56:02.437Z,3.33
2022-08-23T04:00:58.694Z,4.20
2022-08-23T04:05:55.010Z,3.80
2022-08-23T04:10:51.360Z,4.70
2022-08-23T04:15:49.861Z,4.25
2022-08-23T04:20:46.312Z,3.85
2022-08-23T04:25:45.844Z,5.43
2022-08-23T04:30:42.430Z,3.90
2022-08-23T04:35:41.350Z,4.70
2022-08-23T04:40:56.495Z,3.97
2022-08-23T04:45:52.860Z,4.38
2022-08-23T04:50:49.358Z,4.53
2022-08-23T04:55:45.740Z,4.32
2022-08-23T05:00:42.103Z,4.70
2022-08-23T05:05:38.460Z,4.53
2022-08-23T05:10:35.013Z,4.95
2022-08-23T05:15:31.301Z,4.70
2022-08-23T05:20:27.972Z,5.18
2022-08-23T05:25:24.248Z,4.75
2022-08-23T05:30:20.834Z,4.55
2022-08-23T05:35:17.391Z,5.80
2022-08-23T05:40:14.465Z,5.20
2022-08-23T05:45:10.911Z,5.38
2022-08-23T05:50:07.548Z,5.55
2022-08-23T05:55:04.784Z,5.25
2022-08-23T06:00:01.012Z,5.85
2022-08-23T06:04:57.771Z,5.38
2022-08-23T06:09:55.359Z,5.60
2022-08-23T06:14:51.884Z,5.80
2022-08-23T06:19:48.942Z,5.68
2022-08-23T06:24:45.338Z,5.50
2022-08-23T06:29:41.892Z,5.07
2022-08-23T06:34:38.686Z,5.43
2022-08-23T06:39:37.655Z,5.78
2022-08-23T06:44:35.127Z,5.60
2022-08-23T06:49:31.516Z,5.70
2022-08-23T06:54:29.081Z,5.40
2022-08-23T06:59:25.755Z,5.22
2022-08-23T07:04:32.840Z,5.85
2022-08-23T07:09:29.872Z,5.53
2022-08-23T07:14:26.271Z,6.32
2022-08-23T07:19:29.036Z,5.95
2022-08-23T07:24:30.655Z,5.60
2022-08-23T07:29:29.991Z,5.82
2022-08-23T07:34:26.437Z,5.57
2022-08-23T07:39:23.483Z,5.85
2022-08-23T07:44:20.167Z,5.80
2022-08-23T07:49:20.248Z,5.93
2022-08-23T07:54:18.075Z,6.15
2022-08-23T07:59:14.398Z,5.40
2022-08-23T08:04:11.416Z,6.97
2022-08-23T08:09:08.196Z,6.70
2022-08-23T08:14:05.802Z,6.72
2022-08-23T08:19:03.923Z,6.85
2022-08-23T08:24:00.525Z,6.65
2022-08-23T08:28:56.839Z,6.90
2022-08-23T08:33:53.142Z,6.65
2022-08-23T08:38:51.207Z,6.75
2022-08-23T08:44:01.211Z,6.80
2022-08-23T08:48:59.259Z,7.05
2022-08-23T08:53:57.151Z,5.75
2022-08-23T08:58:55.355Z,6.00
2022-08-23T09:03:52.415Z,6.40
2022-08-23T09:09:08.731Z,6.53
2022-08-23T09:14:08.014Z,6.38
2022-08-23T09:19:04.302Z,6.50
2022-08-23T09:24:01.362Z,6.38
2022-08-23T09:29:16.549Z,5.85
2022-08-23T09:34:20.773Z,6.38
2022-08-23T09:39:30.640Z,5.47
2022-08-23T09:44:36.045Z,5.82
2022-08-23T09:49:32.375Z,6.82
2022-08-23T09:54:28.592Z,6.80
2022-08-23T09:59:33.922Z,6.88
2022-08-23T10:04:30.203Z,5.90
2022-08-23T10:09:30.868Z,6.25
2022-08-23T10:14:30.050Z,6.38
2022-08-23T10:19:49.091Z,6.20
2022-08-23T10:24:47.065Z,6.53
2022-08-23T10:29:48.497Z,6.35
2022-08-23T10:35:00.846Z,6.03
2022-08-23T10:40:03.693Z,6.50
2022-08-23T10:45:03.845Z,6.53
2022-08-23T10:50:03.705Z,5.90
2022-08-23T10:55:16.425Z,6.55
2022-08-23T11:00:17.882Z,5.97
2022-08-23T11:05:19.386Z,6.00
2022-08-23T11:10:26.766Z,6.18
2022-08-23T11:15:35.429Z,5.90
2022-08-23T11:20:55.606Z,5.80
2022-08-23T11:25:51.894Z,6.07
2022-08-23T11:30:49.867Z,6.00
2022-08-23T11:35:51.945Z,6.35
2022-08-23T11:40:56.719Z,5.70
2022-08-23T11:45:53.512Z,5.75
2022-08-23T11:51:05.300Z,5.68
2022-08-23T11:56:09.911Z,6.00
2022-08-23T12:01:08.410Z,6.00
2022-08-23T12:06:07.523Z,5.97
2022-08-23T12:11:06.347Z,5.97
2022-08-23T12:16:17.560Z,5.50
2022-08-23T12:21:17.155Z,6.50
2022-08-23T12:26:20.152Z,5.82
2022-08-23T12:31:31.871Z,6.15
2022-08-23T12:36:32.791Z,6.35
2022-08-23T12:41:31.159Z,6.20
2022-08-23T12:46:30.513Z,6.38
2022-08-23T12:51:26.922Z,6.47
2022-08-23T12:56:32.049Z,6.35
2022-08-23T13:01:37.149Z,5.78
2022-08-23T13:06:39.491Z,6.13
2022-08-23T13:11:39.139Z,6.40
2022-08-23T13:16:43.815Z,6.18
2022-08-23T13:21:40.370Z,5.65
2022-08-23T13:26:39.439Z,5.90
2022-08-23T13:32:07.888Z,6.32
2022-08-23T13:37:16.803Z,5.70
2022-08-23T13:42:13.191Z,6.03
2022-08-23T13:47:19.885Z,5.75
2022-08-23T13:52:45.911Z,6.00
2022-08-23T13:57:36.987Z,6.13
2022-08-23T14:02:33.289Z,6.00
2022-08-23T14:07:29.619Z,5.80
2022-08-23T14:12:27.946Z,6.03
2022-08-23T14:17:24.264Z,5.82
2022-08-23T14:22:20.588Z,6.38
2022-08-23T14:27:16.894Z,5.65
2022-08-23T14:32:13.133Z,5.80
2022-08-23T14:42:25.772Z,6.35
2022-08-23T14:47:22.009Z,6.50
2022-08-23T14:52:18.313Z,5.70
2022-08-23T14:57:14.614Z,5.80
2022-08-23T15:02:11.955Z,6.13
2022-08-23T15:07:18.312Z,6.15
2022-08-23T15:17:35.651Z,5.95
2022-08-23T15:22:31.999Z,6.05
2022-08-23T15:27:29.926Z,5.78
2022-08-23T15:32:26.336Z,5.68
2022-08-23T15:37:24.588Z,5.60
2022-08-23T15:42:20.929Z,5.63
2022-08-23T15:47:21.788Z,5.38
2022-08-23T15:52:18.463Z,5.90
2022-08-23T15:57:16.036Z,6.03
2022-08-23T16:02:12.558Z,5.90
2022-08-23T16:07:09.905Z,5.35
2022-08-23T16:12:06.543Z,6.25
2022-08-23T16:17:03.519Z,6.07
2022-08-23T16:21:59.948Z,6.55
2022-08-23T16:26:56.495Z,6.65
2022-08-23T16:31:53.503Z,6.40
2022-08-23T16:36:53.725Z,6.20
2022-08-23T16:41:51.389Z,6.10
2022-08-23T16:46:47.742Z,6.55
2022-08-23T16:51:44.403Z,6.15
2022-08-23T16:56:41.200Z,5.95
2022-08-23T17:02:04.439Z,6.22
2022-08-23T17:07:07.629Z,6.20
2022-08-23T17:12:03.964Z,6.68
2022-08-23T17:17:00.300Z,6.00
2022-08-23T17:21:56.767Z,7.03
2022-08-23T17:26:53.064Z,6.55
2022-08-23T17:31:49.480Z,6.20
2022-08-23T17:36:48.099Z,6.05
2022-08-23T17:41:45.682Z,5.75
2022-08-23T17:46:42.993Z,6.00
2022-08-23T17:51:40.965Z,5.72
2022-08-23T17:56:37.826Z,5.72
2022-08-23T18:01:37.211Z,5.45
2022-08-23T18:06:33.781Z,5.57
2022-08-23T18:11:31.890Z,5.15
2022-08-23T18:16:34.398Z,5.40
2022-08-23T18:21:31.824Z,5.20
2022-08-23T18:26:46.961Z,5.70
2022-08-23T18:31:43.796Z,6.55
2022-08-23T18:36:40.291Z,5.43
2022-08-23T18:41:38.204Z,5.30
2022-08-23T18:46:35.167Z,5.75
2022-08-23T18:51:31.444Z,5.70
2022-08-23T18:56:27.911Z,4.93
2022-08-23T19:01:29.125Z,5.65
2022-08-23T19:06:26.051Z,6.05
2022-08-23T19:11:23.123Z,5.20
2022-08-23T19:16:20.273Z,5.53
2022-08-23T19:21:20.527Z,5.85
2022-08-23T19:26:19.364Z,9.32
2022-08-23T19:31:17.050Z,5.47
2022-08-23T19:36:35.645Z,5.88
2022-08-23T19:41:31.084Z,6.05
2022-08-23T19:46:27.402Z,5.25
2022-08-23T19:51:24.604Z,5.65
2022-08-23T19:56:20.860Z,5.50
2022-08-23T20:01:17.258Z,5.22
2022-08-23T20:06:18.827Z,5.63
2022-08-23T20:11:15.586Z,5.05
2022-08-23T20:16:12.137Z,5.65
2022-08-23T20:21:08.530Z,5.38
2022-08-23T20:26:04.884Z,5.28
2022-08-23T20:31:22.401Z,4.72
2022-08-23T20:36:20.304Z,4.60
2022-08-23T20:41:17.022Z,7.28
2022-08-23T20:46:13.692Z,4.50
2022-08-23T20:51:10.176Z,4.55
2022-08-23T20:56:07.886Z,4.88
2022-08-23T21:01:05.211Z,5.03
2022-08-23T21:06:09.042Z,4.75
2022-08-23T21:11:05.781Z,4.80
2022-08-23T21:16:02.184Z,5.10
2022-08-23T21:20:59.300Z,4.85
2022-08-23T21:25:56.889Z,5.15
2022-08-23T21:30:53.308Z,4.90
2022-08-23T21:35:49.595Z,4.65
2022-08-23T21:40:45.832Z,4.80
2022-08-23T21:45:43.220Z,5.07
2022-08-23T21:50:39.643Z,5.20
2022-08-23T21:55:37.029Z,4.80
2022-08-23T22:00:34.287Z,4.68
2022-08-23T22:05:30.958Z,4.68
2022-08-23T22:10:27.655Z,4.97
2022-08-23T22:15:25.078Z,4.68
2022-08-23T22:20:21.323Z,4.55
2022-08-23T22:25:17.629Z,4.50
2022-08-23T22:30:15.057Z,5.22
2022-08-23T22:35:11.997Z,4.10
2022-08-23T22:40:10.102Z,4.50
2022-08-23T22:45:06.819Z,4.55
2022-08-23T22:50:03.808Z,4.30
2022-08-23T22:55:00.035Z,4.60
2022-08-23T22:59:56.403Z,4.43
2022-08-23T23:04:54.939Z,4.45
2022-08-23T23:09:51.181Z,4.50
2022-08-23T23:14:47.406Z,4.53
2022-08-23T23:20:02.304Z,4.72
2022-08-23T23:25:00.974Z,4.22
2022-08-23T23:29:57.229Z,4.13
2022-08-23T23:34:54.150Z,4.47
2022-08-23T23:39:53.581Z,4.43
2022-08-23T23:44:49.904Z,3.95
2022-08-23T23:49:46.833Z,4.18
2022-08-23T23:54:43.054Z,4.72
2022-08-23T23:59:40.884Z,3.83
